Hawaii METAR Reports

 

PHOG - Kahului, Hawaii, USA
Distance from station: WNW 8mi, 13km
Updated: Sat, 18-Aug-2018 10:54am HST
Partly Cloudy
Partly Cloudy
 Wind from NE
Wind: NE 18 mph , 30 km/h, Gust: 28 mph , 44 km/h
Temperature: 88°F , 31°C
Heat Index: 103°F , 39°C
Dew Point: 79°F , 26°C
Humidity: 75%
Barometer: 29.98 inHg , 1015.2 hPa
Clouds: Partly Cloudy
Visibility: 10 miles , 16 km
Cloud details: Few Clouds 500 ft
Few Clouds 1500 ft
Partly Cloudy 3000 ft
2018/08/18 20:54 PHOG 182054Z 05016G24KT 10SM FEW005 FEW015 SCT030 31/26 A2998 RMK AO2 SLP155 60000 T03060256 58002 $
PHJH - Lahaina/West Mau, Hawaii, USA
Distance from station: WNW 24mi, 39km
Updated: Sat, 18-Aug-2018 10:45am HST
Mostly Cloudy
Mostly Cloudy
 Wind from NE
Wind: NE 16 mph , 26 km/h
Temperature: 84°F , 29°C
Heat Index: 92°F , 33°C
Dew Point: 75°F , 24°C
Humidity: 74%
Barometer: 29.99 inHg , 1015.6 hPa
Clouds: Mostly Cloudy
Visibility: 10 miles , 16 km
Cloud details: Partly Cloudy 2000 ft
Mostly Cloudy 3000 ft
2018/08/18 20:45 PHJH 182045Z 04014KT 10SM SCT020 BKN030 29/24 A2999
 
PHNY - Lanai City Airpo, Hawaii, USA
Distance from station: W 40mi, 65km
Updated: Fri, 17-Aug-2018 2:55pm HST
NOT Current
Mostly Cloudy
Mostly Cloudy
 Wind from NE
Wind: NE 14 mph , 22 km/h
Temperature: 82°F , 28°C
Heat Index: 86°F , 30°C
Dew Point: 72°F , 22°C
Humidity: 70%
Barometer: 30.04 inHg , 1017.3 hPa
Clouds: Mostly Cloudy
Visibility: 10 miles , 16 km
Cloud details: Partly Cloudy 3000 ft
Mostly Cloudy 4000 ft
2018/08/18 00:55 PHNY 180055Z 04012KT 10SM SCT030 BKN040 28/22 A3004
PHMK - Molokai, Hawaii, USA
Distance from station: WNW 55mi, 88km
Updated: Sat, 18-Aug-2018 11:13am HST
Partly Cloudy
Partly Cloudy
 Wind from NNE
Wind: NNE 14 mph , 22 km/h, Gust: 24 mph , 39 km/h
Temperature: 84°F , 29°C
Heat Index: 92°F , 33°C
Dew Point: 75°F , 24°C
Humidity: 74%
Barometer: 29.99 inHg , 1015.6 hPa
Clouds: Partly Cloudy
Visibility: 10 miles , 16 km
Cloud details: Partly Cloudy 1500 ft
2018/08/18 21:13 PHMK 182113Z 03012G21KT 10SM SCT015 29/24 A2999 RMK AO2 T02940244
 
PHKO - Kailua/Kona, Hawaii, USA
Distance from station: SSE 79mi, 128km
Updated: Sat, 18-Aug-2018 10:53am HST
Clear
Clear
 Wind from SSW
Wind: SSW 12 mph , 19 km/h
Temperature: 84°F , 29°C
Heat Index: 88°F , 31°C
Dew Point: 70°F , 21°C
Humidity: 62%
Barometer: 29.94 inHg , 1013.9 hPa
Clouds: Clear
Visibility: 10 miles , 16 km
2018/08/18 20:53 PHKO 182053Z 20010KT 10SM CLR 29/21 A2994 RMK AO2 SLP138 T02890211 50001
PHSF - Bradshaw Aaf/Haw, Hawaii, USA
Distance from station: SE 90mi, 145km
Updated: Sat, 18-Aug-2018 10:56am HST
Clear
Clear
 Wind from SSW
Wind: SSW 10 mph , 17 km/h
Temperature: 77°F , 25°C
Dew Point: 55°F , 13°C
Humidity: 47%
Barometer: 30.34 inHg , 1027.4 hPa
Clouds: Clear
Visibility: 10 miles , 16 km
2018/08/18 20:56 PHSF 182056Z AUTO 20009KT 10SM CLR 25/13 A3034 RMK AO2 LTG DSNT SW SLP144 WND DATA ESTMD T02500126 50000 $
 
PHNG - Kaneohe Mcas, Hawaii, USA
Distance from station: WNW 102mi, 164km
Updated: Sat, 18-Aug-2018 11:33am HST
Mostly Cloudy
Mostly Cloudy
 Wind from NE
Wind: NE 13 mph , 20 km/h
Temperature: 84°F , 29°C
Heat Index: 96°F , 36°C
Dew Point: 79°F , 26°C
Humidity: 84%
Barometer: 29.99 inHg , 1015.6 hPa
Clouds: Mostly Cloudy
Visibility: 10 miles , 16 km
Cloud details: Partly Cloudy 1500 ft
Mostly Cloudy 2100 ft
Mostly Cloudy 2800 ft
2018/08/18 21:33 PHNG 182133Z 04011KT 10SM SCT015 BKN021 BKN028 29/26 A2999 RMK AO2 T02940256 $
PHNL - Honolulu, Hawaii, USA
Distance from station: WNW 108mi, 174km
Updated: Sat, 18-Aug-2018 10:53am HST
Partly Cloudy
Partly Cloudy
 Wind from NNE
Wind: NNE 16 mph , 26 km/h, Gust: 23 mph , 37 km/h
Temperature: 88°F , 31°C
Heat Index: 96°F , 36°C
Dew Point: 73°F , 23°C
Humidity: 62%
Barometer: 29.99 inHg , 1015.6 hPa
Clouds: Partly Cloudy
Visibility: 10 miles , 16 km
Cloud details: Few Clouds 3300 ft
Few Clouds 4000 ft
Partly Cloudy 6500 ft
2018/08/18 20:53 PHNL 182053Z 03014G20KT 10SM FEW033 FEW040 SCT065 31/23 A2999 RMK AO2 SLP154 VCSH N-E T03110228 58001
 
PHTO - Hilo, Hawaii, USA
Distance from station: SE 114mi, 183km
Updated: Sat, 18-Aug-2018 11:22am HST
Rain, Mist, Overcast
Rain, Mist, Overcast
 Wind from ESE
Wind: ESE 9 mph , 15 km/h, Gust: 17 mph , 28 km/h
Temperature: 79°F , 26°C
Dew Point: 75°F , 24°C
Humidity: 89%
Barometer: 29.98 inHg , 1015.2 hPa
Summary: Rain, Mist
Clouds: Overcast
Visibility: 2 1/2 miles , 4 km
Cloud details: Mostly Cloudy 800 ft
Overcast 1600 ft
2018/08/18 21:22 PHTO 182122Z 12008G15KT 2 1/2SM RA BR BKN008 OVC016 26/24 A2998 RMK AO2 CIG 005V012 P0005 T02610244
PHJR - Kalaeloa, Hawaii, USA
Distance from station: WNW 117mi, 189km
Updated: Sat, 18-Aug-2018 10:53am HST
Mostly Cloudy
Mostly Cloudy
 Wind from ENE
Wind: ENE 10 mph , 17 km/h, Gust: 20 mph , 31 km/h
Temperature: 90°F , 32°C
Heat Index: 99°F , 37°C
Dew Point: 73°F , 23°C
Humidity: 59%
Barometer: 30.00 inHg , 1015.9 hPa
Clouds: Mostly Cloudy
Visibility: 10 miles , 16 km
Cloud details: Mostly Cloudy 3400 ft
2018/08/18 20:53 PHJR 182053Z 06009G17KT 030V100 10SM BKN034 32/23 A3000 RMK AO2 SLP164 T03170228 58002
 
PHHI - Wheeler Afb/Oahu, Hawaii, USA
Distance from station: WNW 120mi, 193km
Updated: Fri, 17-Aug-2018 1:55pm HST
NOT Current
Mostly Cloudy
Mostly Cloudy
 Wind from E
Wind: E 12 mph , 19 km/h, Gust: 17 mph , 28 km/h
Temperature: 90°F , 32°C
Heat Index: 92°F , 33°C
Dew Point: 64°F , 18°C
Humidity: 43%
Barometer: 30.05 inHg , 1017.6 hPa
Clouds: Mostly Cloudy
Visibility: 7 miles , 11 km
Cloud details: Mostly Cloudy 3500 ft
2018/08/17 23:55 PHHI 172355Z 09010G15KT 7SM BKN035 32/18 A3005 RMK SLPNO WND DATA ESTMD ALSTG ESTMD LAST
PHLI - Lihue/Kauai Is, Hawaii, USA
Distance from station: WNW 209mi, 336km
Updated: Sat, 18-Aug-2018 10:53am HST
Partly Cloudy
Partly Cloudy
 Wind from NNE
Wind: NNE 15 mph , 24 km/h
Temperature: 86°F , 30°C
Heat Index: 95°F , 35°C
Dew Point: 75°F , 24°C
Humidity: 70%
Barometer: 30.04 inHg , 1017.3 hPa
Clouds: Partly Cloudy
Visibility: 10 miles , 16 km
Cloud details: Partly Cloudy 2500 ft
2018/08/18 20:53 PHLI 182053Z 02013KT 10SM SCT025 30/24 A3004 RMK AO2 SLP169 T03000244 50002 $
 
PHBK - Barking Sands/Ka, Hawaii, USA
Distance from station: WNW 237mi, 382km
Updated: Sat, 18-Aug-2018 10:56am HST
Clear
Clear
 Wind from W
Wind: W 7 mph , 11 km/h
Temperature: 84°F , 29°C
Heat Index: 90°F , 32°C
Dew Point: 73°F , 23°C
Humidity: 70%
Barometer: 30.01 inHg , 1016.3 hPa
Clouds: Clear
Visibility: 10 miles , 16 km
2018/08/18 20:56 PHBK 182056Z AUTO 26006KT 10SM CLR 29/23 A3001 RMK AO2 SLP164 T02890233 51001